createdAt,value
2018-07-02T00:00:38.370Z,20.42
2018-07-02T00:01:38.366Z,20.34
2018-07-02T00:02:38.358Z,20.48
2018-07-02T00:03:38.348Z,20.35
2018-07-02T00:04:38.341Z,20.42
2018-07-02T00:05:38.330Z,20.40
2018-07-02T00:06:38.325Z,20.46
2018-07-02T00:07:38.316Z,20.35
2018-07-02T00:08:38.307Z,20.48
2018-07-02T00:09:38.302Z,20.46
2018-07-02T00:10:38.292Z,20.42
2018-07-02T00:11:38.284Z,20.41
2018-07-02T00:12:38.281Z,20.35
2018-07-02T00:13:38.268Z,20.35
2018-07-02T00:14:38.260Z,20.50
2018-07-02T00:15:38.252Z,20.46
2018-07-02T00:16:38.246Z,20.50
2018-07-02T00:17:38.236Z,20.35
2018-07-02T00:18:38.228Z,20.34
2018-07-02T00:19:38.223Z,20.41
2018-07-02T00:20:38.213Z,20.31
2018-07-02T00:21:38.205Z,20.17
2018-07-02T00:22:38.196Z,20.16
2018-07-02T00:23:38.189Z,20.13
2018-07-02T00:24:38.182Z,20.04
2018-07-02T00:25:38.172Z,20.10
2018-07-02T00:26:38.168Z,19.94
2018-07-02T00:27:38.157Z,20.05
2018-07-02T00:28:38.149Z,20.19
2018-07-02T00:29:38.140Z,20.04
2018-07-02T00:30:38.132Z,20.05
2018-07-02T00:31:38.125Z,20.05
2018-07-02T00:32:38.116Z,20.04
2018-07-02T00:33:38.108Z,20.08
2018-07-02T00:34:38.100Z,20.00
2018-07-02T00:35:38.092Z,20.13
2018-07-02T00:36:38.084Z,20.01
2018-07-02T00:37:38.077Z,20.04
2018-07-02T00:38:38.068Z,20.08
2018-07-02T00:39:38.061Z,19.95
2018-07-02T00:40:38.052Z,19.85
2018-07-02T00:41:38.042Z,19.80
2018-07-02T00:42:38.080Z,19.87
2018-07-02T00:43:38.027Z,19.78
2018-07-02T00:44:38.020Z,19.76
2018-07-02T00:45:38.009Z,19.78
2018-07-02T00:46:38.001Z,19.67
2018-07-02T00:47:37.993Z,19.67
2018-07-02T00:48:37.985Z,19.65
2018-07-02T00:49:37.977Z,19.75
2018-07-02T00:50:37.968Z,19.68
2018-07-02T00:51:37.962Z,19.78
2018-07-02T00:52:37.955Z,19.68
2018-07-02T00:53:37.942Z,19.79
2018-07-02T00:54:37.937Z,19.79
2018-07-02T00:55:37.926Z,19.71
2018-07-02T00:56:37.918Z,19.65
2018-07-02T00:57:37.909Z,19.61
2018-07-02T00:58:37.900Z,19.64
2018-07-02T00:59:37.892Z,19.64
2018-07-02T01:00:37.885Z,19.65
2018-07-02T01:01:37.878Z,19.68
2018-07-02T01:02:37.867Z,19.67
2018-07-02T01:03:37.870Z,19.76
2018-07-02T01:04:37.851Z,19.78
2018-07-02T01:05:37.841Z,19.82
2018-07-02T01:06:37.834Z,19.79
2018-07-02T01:07:37.826Z,19.78
2018-07-02T01:08:37.817Z,19.83
2018-07-02T01:09:37.807Z,19.76
2018-07-02T01:10:37.801Z,19.76
2018-07-02T01:11:37.791Z,19.83
2018-07-02T01:12:37.783Z,19.79
2018-07-02T01:13:37.775Z,19.76
2018-07-02T01:14:37.766Z,19.79
2018-07-02T01:15:37.758Z,19.80
2018-07-02T01:16:37.752Z,19.78
2018-07-02T01:17:37.741Z,19.83
2018-07-02T01:18:37.732Z,19.83
2018-07-02T01:19:37.725Z,19.79
2018-07-02T01:20:37.724Z,19.79
2018-07-02T01:21:37.707Z,19.67
2018-07-02T01:22:37.698Z,19.67
2018-07-02T01:23:37.691Z,19.71
2018-07-02T01:24:37.685Z,19.70
2018-07-02T01:25:37.677Z,19.76
2018-07-02T01:26:37.665Z,19.68
2018-07-02T01:27:37.659Z,19.65
2018-07-02T01:28:37.649Z,19.67
2018-07-02T01:29:37.640Z,19.67
2018-07-02T01:30:37.632Z,19.58
2018-07-02T01:31:37.623Z,19.65
2018-07-02T01:32:37.614Z,19.61
2018-07-02T01:33:37.606Z,19.65
2018-07-02T01:34:37.599Z,19.61
2018-07-02T01:35:37.589Z,19.70
2018-07-02T01:36:37.581Z,19.62
2018-07-02T01:37:37.572Z,19.62
2018-07-02T01:38:37.563Z,19.53
2018-07-02T01:39:37.555Z,19.55
2018-07-02T01:40:37.548Z,19.45
2018-07-02T01:41:37.537Z,19.50
2018-07-02T01:42:37.529Z,19.50
2018-07-02T01:43:37.521Z,19.53
2018-07-02T01:44:37.512Z,19.42
2018-07-02T01:45:37.503Z,19.46
2018-07-02T01:46:37.495Z,19.46
2018-07-02T01:47:37.486Z,19.46
2018-07-02T01:48:37.678Z,19.49
2018-07-02T01:49:37.468Z,19.43
2018-07-02T01:50:37.460Z,19.42
2018-07-02T01:51:37.451Z,19.46
2018-07-02T01:52:37.443Z,19.40
2018-07-02T01:53:37.434Z,19.43
2018-07-02T01:54:37.425Z,19.40
2018-07-02T01:55:37.417Z,19.45
2018-07-02T01:56:37.410Z,19.43
2018-07-02T01:57:37.399Z,19.45
2018-07-02T01:58:37.391Z,19.45
2018-07-02T01:59:37.383Z,19.43
2018-07-02T02:00:37.375Z,19.31
2018-07-02T02:01:37.365Z,19.27
2018-07-02T02:02:37.358Z,19.16
2018-07-02T02:03:37.348Z,19.13
2018-07-02T02:04:37.339Z,19.10
2018-07-02T02:05:37.330Z,19.16
2018-07-02T02:06:37.321Z,19.15
2018-07-02T02:07:37.314Z,19.07
2018-07-02T02:08:37.305Z,19.16
2018-07-02T02:09:37.294Z,19.17
2018-07-02T02:10:37.286Z,19.06
2018-07-02T02:11:37.279Z,19.12
2018-07-02T02:12:37.269Z,19.07
2018-07-02T02:13:37.259Z,19.15
2018-07-02T02:14:37.253Z,19.02
2018-07-02T02:15:37.242Z,19.15
2018-07-02T02:16:37.234Z,19.13
2018-07-02T02:17:37.227Z,19.17
2018-07-02T02:18:37.216Z,19.10
2018-07-02T02:19:37.206Z,19.09
2018-07-02T02:20:37.198Z,19.12
2018-07-02T02:21:37.188Z,18.97
2018-07-02T02:22:37.179Z,18.91
2018-07-02T02:23:37.173Z,18.97
2018-07-02T02:24:37.166Z,18.90
2018-07-02T02:25:37.153Z,18.87
2018-07-02T02:26:37.144Z,18.82
2018-07-02T02:27:37.138Z,18.82
2018-07-02T02:28:37.153Z,18.94
2018-07-02T02:29:37.124Z,18.76
2018-07-02T02:30:37.124Z,18.90
2018-07-02T02:31:37.106Z,18.87
2018-07-02T02:32:37.091Z,18.87
2018-07-02T02:33:37.081Z,18.83
2018-07-02T02:34:37.074Z,18.90
2018-07-02T02:35:37.064Z,18.87
2018-07-02T02:36:37.055Z,18.96
2018-07-02T02:37:37.045Z,18.84
2018-07-02T02:38:37.036Z,18.76
2018-07-02T02:39:37.031Z,18.90
2018-07-02T02:40:37.021Z,18.84
2018-07-02T02:41:37.008Z,18.86
2018-07-02T02:42:37.008Z,18.86
2018-07-02T02:43:36.992Z,18.89
2018-07-02T02:44:36.982Z,18.86
2018-07-02T02:45:36.972Z,18.90
2018-07-02T02:46:36.963Z,18.93
2018-07-02T02:47:36.955Z,18.90
2018-07-02T02:48:37.146Z,18.96
2018-07-02T02:49:36.936Z,18.90
2018-07-02T02:50:36.927Z,18.96
2018-07-02T02:51:36.919Z,18.96
2018-07-02T02:52:36.910Z,18.96
2018-07-02T02:53:36.900Z,18.90
2018-07-02T02:54:36.891Z,18.90
2018-07-02T02:55:36.882Z,18.83
2018-07-02T02:56:36.874Z,18.87
2018-07-02T02:57:36.866Z,18.83
2018-07-02T02:58:36.855Z,18.86
2018-07-02T02:59:36.846Z,18.84
2018-07-02T03:00:37.037Z,18.87
2018-07-02T03:01:36.831Z,18.84
2018-07-02T03:02:36.820Z,18.66
2018-07-02T03:03:36.809Z,18.68
2018-07-02T03:04:36.802Z,18.59
2018-07-02T03:05:36.791Z,18.51
2018-07-02T03:06:36.783Z,18.47
2018-07-02T03:07:36.774Z,18.38
2018-07-02T03:08:36.764Z,18.44
2018-07-02T03:09:36.803Z,18.39
2018-07-02T03:10:36.745Z,18.47
2018-07-02T03:11:36.736Z,18.50
2018-07-02T03:12:36.732Z,18.49
2018-07-02T03:13:36.717Z,18.46
2018-07-02T03:14:36.709Z,18.47
2018-07-02T03:15:36.700Z,18.46
2018-07-02T03:16:36.692Z,18.47
2018-07-02T03:17:36.680Z,18.54
2018-07-02T03:18:36.671Z,18.56
2018-07-02T03:19:36.663Z,18.56
2018-07-02T03:20:36.653Z,18.59
2018-07-02T03:21:36.643Z,18.54
2018-07-02T03:22:36.651Z,18.57
2018-07-02T03:23:36.625Z,18.51
2018-07-02T03:24:36.618Z,18.60
2018-07-02T03:25:36.606Z,18.57
2018-07-02T03:26:36.601Z,18.50
2018-07-02T03:27:36.587Z,18.44
2018-07-02T03:28:36.579Z,18.46
2018-07-02T03:29:36.569Z,18.44
2018-07-02T03:30:36.560Z,18.44
2018-07-02T03:31:36.550Z,18.38
2018-07-02T03:32:36.541Z,18.49
2018-07-02T03:33:36.531Z,18.50
2018-07-02T03:34:36.521Z,18.51
2018-07-02T03:35:36.513Z,18.49
2018-07-02T03:36:36.505Z,18.51
2018-07-02T03:37:36.494Z,18.53
2018-07-02T03:38:36.484Z,18.49
2018-07-02T03:39:36.475Z,18.46
2018-07-02T03:40:36.466Z,18.41
2018-07-02T03:41:36.456Z,18.42
2018-07-02T03:42:36.447Z,18.42
2018-07-02T03:43:36.438Z,18.44
2018-07-02T03:44:36.429Z,18.29
2018-07-02T03:45:36.420Z,18.29
2018-07-02T03:46:36.409Z,18.23
2018-07-02T03:47:36.400Z,18.35
2018-07-02T03:48:36.390Z,18.26
2018-07-02T03:49:36.380Z,18.35
2018-07-02T03:50:36.371Z,18.38
2018-07-02T03:51:36.362Z,18.35
2018-07-02T03:52:36.355Z,18.32
2018-07-02T03:53:36.344Z,18.38
2018-07-02T03:54:36.333Z,18.36
2018-07-02T03:55:36.324Z,18.39
2018-07-02T03:56:36.315Z,18.39
2018-07-02T03:57:36.306Z,18.34
2018-07-02T03:58:36.296Z,18.41
2018-07-02T03:59:36.286Z,18.46
2018-07-02T04:00:36.277Z,18.39
2018-07-02T04:01:36.268Z,18.38
2018-07-02T04:02:36.259Z,18.23
2018-07-02T04:03:36.248Z,18.32
2018-07-02T04:04:36.239Z,18.35
2018-07-02T04:05:36.231Z,18.23
2018-07-02T04:06:36.220Z,18.23
2018-07-02T04:07:36.212Z,18.20
2018-07-02T04:08:36.201Z,18.29
2018-07-02T04:09:36.190Z,18.26
2018-07-02T04:10:36.181Z,18.25
2018-07-02T04:11:36.173Z,18.34
2018-07-02T04:12:36.163Z,18.23
2018-07-02T04:13:36.153Z,18.23
2018-07-02T04:14:36.143Z,18.19
2018-07-02T04:15:36.135Z,18.20
2018-07-02T04:16:36.126Z,18.13
2018-07-02T04:17:36.116Z,18.17
2018-07-02T04:18:36.106Z,18.14
2018-07-02T04:19:36.098Z,18.20
2018-07-02T04:20:36.086Z,18.20
2018-07-02T04:21:36.076Z,18.21
2018-07-02T04:22:36.067Z,18.26
2018-07-02T04:23:36.058Z,18.17
2018-07-02T04:24:36.051Z,18.01
2018-07-02T04:25:36.038Z,17.98
2018-07-02T04:26:36.031Z,17.86
2018-07-02T04:27:36.020Z,17.95
2018-07-02T04:28:36.011Z,17.74
2018-07-02T04:29:36.000Z,17.91
2018-07-02T04:30:35.990Z,17.95
2018-07-02T04:31:35.981Z,17.89
2018-07-02T04:32:36.022Z,17.91
2018-07-02T04:33:35.965Z,17.94
2018-07-02T04:34:35.952Z,17.94
2018-07-02T04:35:35.942Z,17.94
2018-07-02T04:36:36.136Z,17.86
2018-07-02T04:37:35.923Z,17.92
2018-07-02T04:38:35.913Z,17.96
2018-07-02T04:39:35.903Z,17.80
2018-07-02T04:40:35.893Z,17.84
2018-07-02T04:41:35.883Z,17.80
2018-07-02T04:42:35.873Z,17.86
2018-07-02T04:43:35.864Z,17.84
2018-07-02T04:44:35.857Z,17.95
2018-07-02T04:45:35.844Z,17.84
2018-07-02T04:46:35.836Z,17.89
2018-07-02T04:47:35.833Z,17.89
2018-07-02T04:48:35.815Z,17.89
2018-07-02T04:49:35.804Z,17.87
2018-07-02T04:50:35.795Z,17.98
2018-07-02T04:51:35.786Z,17.89
2018-07-02T04:52:35.776Z,17.95
2018-07-02T04:53:35.766Z,17.86
2018-07-02T04:54:35.762Z,17.81
2018-07-02T04:55:35.746Z,17.94
2018-07-02T04:56:35.738Z,17.92
2018-07-02T04:57:35.727Z,17.94
2018-07-02T04:58:35.717Z,17.89
2018-07-02T04:59:35.748Z,17.87
2018-07-02T05:00:35.698Z,17.98
2018-07-02T05:01:35.687Z,18.02
2018-07-02T05:02:35.678Z,18.01
2018-07-02T05:03:35.670Z,17.84
2018-07-02T05:04:35.660Z,17.92
2018-07-02T05:05:35.649Z,17.87
2018-07-02T05:06:35.639Z,17.87
2018-07-02T05:07:35.662Z,17.94
2018-07-02T05:08:35.620Z,17.86
2018-07-02T05:09:35.609Z,17.95
2018-07-02T05:10:35.600Z,17.86
2018-07-02T05:11:35.591Z,17.80
2018-07-02T05:12:35.781Z,17.92
2018-07-02T05:13:35.766Z,17.86
2018-07-02T05:14:35.561Z,17.86
2018-07-02T05:15:35.551Z,17.98
2018-07-02T05:16:35.541Z,17.87
2018-07-02T05:17:35.531Z,17.86
2018-07-02T05:18:35.521Z,17.91
2018-07-02T05:19:35.513Z,17.80
2018-07-02T05:20:35.503Z,17.86
2018-07-02T05:21:35.492Z,17.91
2018-07-02T05:22:35.482Z,17.86
2018-07-02T05:23:35.473Z,17.86
2018-07-02T05:24:35.664Z,17.83
2018-07-02T05:25:35.455Z,17.98
2018-07-02T05:26:35.443Z,17.91
2018-07-02T05:27:35.434Z,17.83
2018-07-02T05:28:35.424Z,17.86
2018-07-02T05:29:35.413Z,17.84
2018-07-02T05:30:35.604Z,17.68
2018-07-02T05:31:35.394Z,17.60
2018-07-02T05:32:35.384Z,17.68
2018-07-02T05:33:35.374Z,17.62
2018-07-02T05:34:35.367Z,17.60
2018-07-02T05:35:35.356Z,17.62
2018-07-02T05:36:35.345Z,17.58
2018-07-02T05:37:35.335Z,17.65
2018-07-02T05:38:35.324Z,17.71
2018-07-02T05:39:35.314Z,17.71
2018-07-02T05:40:35.305Z,17.71
2018-07-02T05:41:35.294Z,17.87
2018-07-02T05:42:35.485Z,17.73
2018-07-02T05:43:35.274Z,17.87
2018-07-02T05:44:35.264Z,17.76
2018-07-02T05:45:35.256Z,17.70
2018-07-02T05:46:35.245Z,17.60
2018-07-02T05:47:35.236Z,17.71
2018-07-02T05:48:35.477Z,17.62
2018-07-02T05:49:35.214Z,17.68
2018-07-02T05:50:35.204Z,17.71
2018-07-02T05:51:35.195Z,17.62
2018-07-02T05:52:35.185Z,17.68
2018-07-02T05:53:35.175Z,17.71
2018-07-02T05:54:35.165Z,17.76
2018-07-02T05:55:35.155Z,17.74
2018-07-02T05:56:35.144Z,17.70
2018-07-02T05:57:35.136Z,17.68
2018-07-02T05:58:35.125Z,17.73
2018-07-02T05:59:35.116Z,17.68
2018-07-02T06:00:35.375Z,17.71
2018-07-02T06:01:35.095Z,17.73
2018-07-02T06:02:35.085Z,17.55
2018-07-02T06:03:35.076Z,17.57
2018-07-02T06:04:35.067Z,17.60
2018-07-02T06:05:35.055Z,17.73
2018-07-02T06:06:35.046Z,17.57
2018-07-02T06:07:35.037Z,17.57
2018-07-02T06:08:35.026Z,17.53
2018-07-02T06:09:35.015Z,17.47
2018-07-02T06:10:35.006Z,17.49
2018-07-02T06:11:34.995Z,17.54
2018-07-02T06:12:34.985Z,17.53
2018-07-02T06:13:34.975Z,17.55
2018-07-02T06:14:34.965Z,17.49
2018-07-02T06:15:34.956Z,17.55
2018-07-02T06:16:35.002Z,17.53
2018-07-02T06:17:34.935Z,17.60
2018-07-02T06:18:34.925Z,17.46
2018-07-02T06:19:34.917Z,17.58
2018-07-02T06:20:34.905Z,17.60
2018-07-02T06:21:34.894Z,17.54
2018-07-02T06:22:34.887Z,17.58
2018-07-02T06:23:34.875Z,17.58
2018-07-02T06:24:35.065Z,17.54
2018-07-02T06:25:34.854Z,17.49
2018-07-02T06:26:34.845Z,17.49
2018-07-02T06:27:34.834Z,17.49
2018-07-02T06:28:34.825Z,17.45
2018-07-02T06:29:34.813Z,17.47
2018-07-02T06:30:34.849Z,17.47
2018-07-02T06:31:34.793Z,17.51
2018-07-02T06:32:34.784Z,17.43
2018-07-02T06:33:34.773Z,17.39
2018-07-02T06:34:34.763Z,17.39
2018-07-02T06:35:34.753Z,17.40
2018-07-02T06:36:34.944Z,17.45
2018-07-02T06:37:34.732Z,17.45
2018-07-02T06:38:34.723Z,17.45
2018-07-02T06:39:34.712Z,17.45
2018-07-02T06:40:34.704Z,17.42
2018-07-02T06:41:34.693Z,17.45
2018-07-02T06:42:34.883Z,17.47
2018-07-02T06:43:34.672Z,17.58
2018-07-02T06:44:34.667Z,17.54
2018-07-02T06:45:34.653Z,17.53
2018-07-02T06:46:34.641Z,17.49
2018-07-02T06:47:34.631Z,17.53
2018-07-02T06:48:34.669Z,17.46
2018-07-02T06:49:34.610Z,17.51
2018-07-02T06:50:34.602Z,17.46
2018-07-02T06:51:34.591Z,17.40
2018-07-02T06:52:34.581Z,17.30
2018-07-02T06:53:34.570Z,17.25
2018-07-02T06:54:34.560Z,17.28
2018-07-02T06:55:34.551Z,17.24
2018-07-02T06:56:34.540Z,17.35
2018-07-02T06:57:34.531Z,17.33
2018-07-02T06:58:34.572Z,17.30
2018-07-02T06:59:34.511Z,17.32
2018-07-02T07:00:34.500Z,17.33
2018-07-02T07:01:34.488Z,17.35
2018-07-02T07:02:34.480Z,17.30
2018-07-02T07:03:34.468Z,17.30
2018-07-02T07:04:34.458Z,17.32
2018-07-02T07:05:34.448Z,17.35
2018-07-02T07:06:34.441Z,17.35
2018-07-02T07:07:34.430Z,17.33
2018-07-02T07:08:34.469Z,17.39
2018-07-02T07:09:34.407Z,17.36
2018-07-02T07:10:34.397Z,17.30
2018-07-02T07:11:34.387Z,17.33
2018-07-02T07:12:34.578Z,17.35
2018-07-02T07:13:34.366Z,17.40
2018-07-02T07:14:34.361Z,17.40
2018-07-02T07:15:34.360Z,17.32
2018-07-02T07:16:34.342Z,17.35
2018-07-02T07:17:34.328Z,17.38
2018-07-02T07:18:34.315Z,17.36
2018-07-02T07:19:34.307Z,17.33
2018-07-02T07:20:34.295Z,17.35
2018-07-02T07:21:34.284Z,17.33
2018-07-02T07:22:34.275Z,17.35
2018-07-02T07:23:34.265Z,17.28
2018-07-02T07:24:34.256Z,17.15
2018-07-02T07:25:34.243Z,17.21
2018-07-02T07:26:34.234Z,17.30
2018-07-02T07:27:34.273Z,17.32
2018-07-02T07:28:34.214Z,17.36
2018-07-02T07:29:34.202Z,17.36
2018-07-02T07:30:34.393Z,17.28
2018-07-02T07:31:34.183Z,17.15
2018-07-02T07:32:34.172Z,17.25
2018-07-02T07:33:34.162Z,17.22
2018-07-02T07:34:34.151Z,17.30
2018-07-02T07:35:34.141Z,17.21
2018-07-02T07:36:34.133Z,17.20
2018-07-02T07:37:34.214Z,17.33
2018-07-02T07:38:34.110Z,17.30
2018-07-02T07:39:34.100Z,17.20
2018-07-02T07:40:34.091Z,17.22
2018-07-02T07:41:34.079Z,17.24
2018-07-02T07:42:34.069Z,17.22
2018-07-02T07:43:34.060Z,17.15
2018-07-02T07:44:34.049Z,17.22
2018-07-02T07:45:34.038Z,17.30
2018-07-02T07:46:34.029Z,17.18
2018-07-02T07:47:34.041Z,17.21
2018-07-02T07:48:34.008Z,17.15
2018-07-02T07:49:33.996Z,17.17
2018-07-02T07:50:33.990Z,17.30
2018-07-02T07:51:33.976Z,17.25
2018-07-02T07:52:33.966Z,17.22
2018-07-02T07:53:33.955Z,17.07
2018-07-02T07:54:33.945Z,16.96
2018-07-02T07:55:33.935Z,16.99
2018-07-02T07:56:33.925Z,16.96
2018-07-02T07:57:33.916Z,17.03
2018-07-02T07:58:33.905Z,17.06
2018-07-02T07:59:33.911Z,16.98
2018-07-02T08:00:33.883Z,16.98
2018-07-02T08:01:33.877Z,16.98
2018-07-02T08:02:33.862Z,17.03
2018-07-02T08:03:33.882Z,16.95
2018-07-02T08:04:33.841Z,16.96
2018-07-02T08:05:33.832Z,16.87
2018-07-02T08:06:34.021Z,16.98
2018-07-02T08:07:33.810Z,16.96
2018-07-02T08:08:33.800Z,17.02
2018-07-02T08:09:33.791Z,16.99
2018-07-02T08:10:33.794Z,17.02
2018-07-02T08:11:33.769Z,17.10
2018-07-02T08:12:33.760Z,17.10
2018-07-02T08:13:33.747Z,17.12
2018-07-02T08:14:33.737Z,17.07
2018-07-02T08:15:33.725Z,16.99
2018-07-02T08:16:33.719Z,17.07
2018-07-02T08:17:33.704Z,17.20
2018-07-02T08:18:33.696Z,17.10
2018-07-02T08:19:33.684Z,17.14
2018-07-02T08:20:33.675Z,17.17
2018-07-02T08:21:33.663Z,17.12
2018-07-02T08:22:33.652Z,17.17
2018-07-02T08:23:33.641Z,17.21
2018-07-02T08:24:33.633Z,17.15
2018-07-02T08:25:33.621Z,17.21
2018-07-02T08:26:33.611Z,17.20
2018-07-02T08:27:33.600Z,17.15
2018-07-02T08:28:33.595Z,17.18
2018-07-02T08:29:33.579Z,17.17
2018-07-02T08:30:33.568Z,17.14
2018-07-02T08:31:33.560Z,17.14
2018-07-02T08:32:33.550Z,17.10
2018-07-02T08:33:33.537Z,17.20
2018-07-02T08:34:33.527Z,17.12
2018-07-02T08:35:33.518Z,17.09
2018-07-02T08:36:33.507Z,16.96
2018-07-02T08:37:33.495Z,16.99
2018-07-02T08:38:33.485Z,17.00
2018-07-02T08:39:33.475Z,16.99
2018-07-02T08:40:33.465Z,16.99
2018-07-02T08:41:33.497Z,17.00
2018-07-02T08:42:33.443Z,16.92
2018-07-02T08:43:33.432Z,16.98
2018-07-02T08:44:33.423Z,16.99
2018-07-02T08:45:33.414Z,16.96
2018-07-02T08:46:33.401Z,16.96
2018-07-02T08:47:33.390Z,17.00
2018-07-02T08:48:33.380Z,17.02
2018-07-02T08:49:33.369Z,17.03
2018-07-02T08:50:33.361Z,16.96
2018-07-02T08:51:33.349Z,16.92
2018-07-02T08:52:33.338Z,16.91
2018-07-02T08:53:33.327Z,16.90
2018-07-02T08:54:33.517Z,16.85
2018-07-02T08:55:33.306Z,16.88
2018-07-02T08:56:33.296Z,16.98
2018-07-02T08:57:33.288Z,16.92
2018-07-02T08:58:33.275Z,16.96
2018-07-02T08:59:33.264Z,16.90
2018-07-02T09:00:33.255Z,16.87
2018-07-02T09:01:33.242Z,16.85
2018-07-02T09:02:33.232Z,16.82
2018-07-02T09:03:33.221Z,16.78
2018-07-02T09:04:33.212Z,16.80
2018-07-02T09:05:33.200Z,16.85
2018-07-02T09:06:33.190Z,16.82
2018-07-02T09:07:33.179Z,16.85
2018-07-02T09:08:33.169Z,16.84
2018-07-02T09:09:33.158Z,16.90
2018-07-02T09:10:33.146Z,16.90
2018-07-02T09:11:33.278Z,16.92
2018-07-02T09:12:33.126Z,16.98
2018-07-02T09:13:33.115Z,16.96
2018-07-02T09:14:33.105Z,16.99
2018-07-02T09:15:33.096Z,17.02
2018-07-02T09:16:33.086Z,17.02
2018-07-02T09:17:33.073Z,16.98
2018-07-02T09:18:33.063Z,16.88
2018-07-02T09:19:33.053Z,17.02
2018-07-02T09:20:33.042Z,16.96
2018-07-02T09:21:33.032Z,16.99
2018-07-02T09:22:33.021Z,16.99
2018-07-02T09:23:33.011Z,16.92
2018-07-02T09:24:33.001Z,16.99
2018-07-02T09:25:33.024Z,16.99
2018-07-02T09:26:32.980Z,16.98
2018-07-02T09:27:32.969Z,16.95
2018-07-02T09:28:32.971Z,17.06
2018-07-02T09:29:32.947Z,17.05
2018-07-02T09:30:32.938Z,17.03
2018-07-02T09:31:32.926Z,17.17
2018-07-02T09:32:32.963Z,17.18
2018-07-02T09:33:32.906Z,17.15
2018-07-02T09:34:32.894Z,17.17
2018-07-02T09:35:32.885Z,17.07
2018-07-02T09:36:33.074Z,17.06
2018-07-02T09:37:32.863Z,17.06
2018-07-02T09:38:32.854Z,16.98
2018-07-02T09:39:32.842Z,17.02
2018-07-02T09:40:32.833Z,16.98
2018-07-02T09:41:32.826Z,16.99
2018-07-02T09:42:32.810Z,17.03
2018-07-02T09:43:32.800Z,17.00
2018-07-02T09:44:32.790Z,17.06
2018-07-02T09:45:32.779Z,17.00
2018-07-02T09:46:32.824Z,16.92
2018-07-02T09:47:32.758Z,17.05
2018-07-02T09:48:32.748Z,17.06
2018-07-02T09:49:32.809Z,17.14
2018-07-02T09:50:32.726Z,17.12
2018-07-02T09:51:32.716Z,17.12
2018-07-02T09:52:32.705Z,17.06
2018-07-02T09:53:32.695Z,17.20
2018-07-02T09:54:32.684Z,17.12
2018-07-02T09:55:32.674Z,17.21
2018-07-02T09:56:32.663Z,17.18
2018-07-02T09:57:32.652Z,17.22
2018-07-02T09:58:32.643Z,17.24
2018-07-02T09:59:32.631Z,17.25
2018-07-02T10:00:32.629Z,17.20
2018-07-02T10:01:32.610Z,17.17
2018-07-02T10:02:32.601Z,17.22
2018-07-02T10:03:32.589Z,17.18
2018-07-02T10:04:32.580Z,17.25
2018-07-02T10:05:32.568Z,17.18
2018-07-02T10:06:32.606Z,17.20
2018-07-02T10:07:32.547Z,17.17
2018-07-02T10:08:32.536Z,17.21
2018-07-02T10:09:32.526Z,17.17
2018-07-02T10:10:32.515Z,17.15
2018-07-02T10:11:32.507Z,17.17
2018-07-02T10:12:32.786Z,17.17
2018-07-02T10:13:32.485Z,17.18
2018-07-02T10:14:32.473Z,17.28
2018-07-02T10:15:32.463Z,17.28
2018-07-02T10:16:32.452Z,17.36
2018-07-02T10:17:32.442Z,17.35
2018-07-02T10:18:32.431Z,17.36
2018-07-02T10:19:32.423Z,17.32
2018-07-02T10:20:32.411Z,17.32
2018-07-02T10:21:32.402Z,17.15
2018-07-02T10:22:32.391Z,17.24
2018-07-02T10:23:37.332Z,17.33
2018-07-02T10:24:32.570Z,17.36
2018-07-02T10:25:32.361Z,17.35
2018-07-02T10:26:32.348Z,17.32
2018-07-02T10:27:32.338Z,17.33
2018-07-02T10:28:32.328Z,17.33
2018-07-02T10:29:32.316Z,17.40
2018-07-02T10:30:32.507Z,17.32
2018-07-02T10:31:32.297Z,17.35
2018-07-02T10:32:32.288Z,17.33
2018-07-02T10:33:32.276Z,17.25
2018-07-02T10:34:32.265Z,17.24
2018-07-02T10:35:32.255Z,17.18
2018-07-02T10:36:32.245Z,17.24
2018-07-02T10:37:32.233Z,17.27
2018-07-02T10:38:32.223Z,17.25
2018-07-02T10:39:32.213Z,17.20
2018-07-02T10:40:32.203Z,17.25
2018-07-02T10:41:32.192Z,17.25
2018-07-02T10:42:32.182Z,17.25
2018-07-02T10:43:32.171Z,17.28
2018-07-02T10:44:32.161Z,17.27
2018-07-02T10:45:32.150Z,17.27
2018-07-02T10:46:32.141Z,17.28
2018-07-02T10:47:32.129Z,17.30
2018-07-02T10:48:32.320Z,17.24
2018-07-02T10:49:32.110Z,17.22
2018-07-02T10:50:32.102Z,17.27
2018-07-02T10:51:32.089Z,17.32
2018-07-02T10:52:32.079Z,17.27
2018-07-02T10:53:32.068Z,17.28
2018-07-02T10:54:32.061Z,17.30
2018-07-02T10:55:32.045Z,17.33
2018-07-02T10:56:32.036Z,17.33
2018-07-02T10:57:32.026Z,17.35
2018-07-02T10:58:32.015Z,17.33
2018-07-02T10:59:32.004Z,17.42
2018-07-02T11:00:31.994Z,17.38
2018-07-02T11:01:31.986Z,17.39
2018-07-02T11:02:31.974Z,17.45
2018-07-02T11:03:31.963Z,17.45
2018-07-02T11:04:31.951Z,17.43
2018-07-02T11:05:31.952Z,17.51
2018-07-02T11:06:31.930Z,17.47
2018-07-02T11:07:31.921Z,17.51
2018-07-02T11:08:31.909Z,17.51
2018-07-02T11:09:31.898Z,17.57
2018-07-02T11:10:31.888Z,17.63
2018-07-02T11:11:31.879Z,17.58
2018-07-02T11:12:31.868Z,17.63
2018-07-02T11:13:31.859Z,17.66
2018-07-02T11:14:31.849Z,17.66
2018-07-02T11:15:31.837Z,17.76
2018-07-02T11:16:31.827Z,17.71
2018-07-02T11:17:31.816Z,17.74
2018-07-02T11:18:32.008Z,17.84
2018-07-02T11:19:31.799Z,17.86
2018-07-02T11:20:31.788Z,17.89
2018-07-02T11:21:31.776Z,17.81
2018-07-02T11:22:31.766Z,17.94
2018-07-02T11:23:31.756Z,17.86
2018-07-02T11:24:31.746Z,18.01
2018-07-02T11:25:31.735Z,18.01
2018-07-02T11:26:31.724Z,17.99
2018-07-02T11:27:31.716Z,18.01
2018-07-02T11:28:31.708Z,18.01
2018-07-02T11:29:31.694Z,18.04
2018-07-02T11:30:31.685Z,18.07
2018-07-02T11:31:31.675Z,18.10
2018-07-02T11:32:31.668Z,18.14
2018-07-02T11:33:31.655Z,18.23
2018-07-02T11:34:31.645Z,18.20
2018-07-02T11:35:31.635Z,18.28
2018-07-02T11:36:31.627Z,18.32
2018-07-02T11:37:31.628Z,18.35
2018-07-02T11:38:31.606Z,18.47
2018-07-02T11:39:31.596Z,18.54
2018-07-02T11:40:31.588Z,18.68
2018-07-02T11:41:31.577Z,18.83
2018-07-02T11:42:31.568Z,18.87
2018-07-02T11:43:31.559Z,18.90
2018-07-02T11:44:31.550Z,18.99
2018-07-02T11:45:31.542Z,19.12
2018-07-02T11:46:31.530Z,19.13
2018-07-02T11:47:31.526Z,19.09
2018-07-02T11:48:31.513Z,19.28
2018-07-02T11:49:31.502Z,19.34
2018-07-02T11:50:31.494Z,19.49
2018-07-02T11:51:31.485Z,19.71
2018-07-02T11:52:31.477Z,19.72
2018-07-02T11:53:31.467Z,19.65
2018-07-02T11:54:31.459Z,19.78
2018-07-02T11:55:31.453Z,19.78
2018-07-02T11:56:31.442Z,19.80
2018-07-02T11:57:31.463Z,20.00
2018-07-02T11:58:31.424Z,20.12
2018-07-02T11:59:31.416Z,20.19
2018-07-02T12:00:31.407Z,20.22
2018-07-02T12:01:31.398Z,20.40
2018-07-02T12:02:31.390Z,20.44
2018-07-02T12:03:31.382Z,20.37
2018-07-02T12:04:31.374Z,20.53
2018-07-02T12:05:31.364Z,20.42
2018-07-02T12:06:31.356Z,20.66
2018-07-02T12:07:31.351Z,20.68
2018-07-02T12:08:31.344Z,20.75
2018-07-02T12:09:31.342Z,20.69
2018-07-02T12:10:31.324Z,20.78
2018-07-02T12:11:31.317Z,20.91
2018-07-02T12:12:31.309Z,21.00
2018-07-02T12:13:31.300Z,20.93
2018-07-02T12:14:31.296Z,21.19
2018-07-02T12:15:31.284Z,21.15
2018-07-02T12:16:31.282Z,21.24
2018-07-02T12:17:31.418Z,21.31
2018-07-02T12:18:31.260Z,21.37
2018-07-02T12:19:31.252Z,21.45
2018-07-02T12:20:31.250Z,21.56
2018-07-02T12:21:31.237Z,21.58
2018-07-02T12:22:31.230Z,21.68
2018-07-02T12:23:31.228Z,21.82
2018-07-02T12:24:31.216Z,21.85
2018-07-02T12:25:31.207Z,22.04
2018-07-02T12:26:31.244Z,22.08
2018-07-02T12:27:31.193Z,22.11
2018-07-02T12:28:31.186Z,22.17
2018-07-02T12:29:31.178Z,22.02
2018-07-02T12:30:31.172Z,22.06
2018-07-02T12:31:31.165Z,22.12
2018-07-02T12:32:31.157Z,22.33
2018-07-02T12:33:31.195Z,22.26
2018-07-02T12:34:31.144Z,22.30
2018-07-02T12:35:31.137Z,22.36
2018-07-02T12:36:31.130Z,22.42
2018-07-02T12:37:31.127Z,22.51
2018-07-02T12:38:31.135Z,22.57
2018-07-02T12:39:31.109Z,22.61
2018-07-02T12:40:31.103Z,22.66
2018-07-02T12:41:31.098Z,22.69
2018-07-02T12:42:31.089Z,22.67
2018-07-02T12:43:31.082Z,22.74
2018-07-02T12:44:31.076Z,22.67
2018-07-02T12:45:31.069Z,22.64
2018-07-02T12:46:31.065Z,22.79
2018-07-02T12:47:31.057Z,22.82
2018-07-02T12:48:31.050Z,22.88
2018-07-02T12:49:31.043Z,22.89
2018-07-02T12:50:31.039Z,22.96
2018-07-02T12:51:31.031Z,23.11
2018-07-02T12:52:31.025Z,23.19